Time;durP1;ratioP1;P1;durP2;ratioP2;P2;SDS_P1;SDS_P2;PMS_P1;PMS_P2;Temp;Humidity;BMP_temperature;BMP_pressure;BME280_temperature;BME280_humidity;BME280_pressure;Samples;Min_cycle;Max_cycle;Signal;HPM_P1;HPM_P2
2021/05/16 00:01:39;;;;;;;;;;;17.20;99.90;;;16.71;100.00;101001.19;5032334;28;19936;-63
2021/05/16 00:04:06;;;;;;;;;;;17.20;99.90;;;16.69;100.00;101001.47;5032046;28;20441;-63
2021/05/16 00:06:34;;;;;;;;;;;17.10;99.90;;;16.68;100.00;100999.91;5031563;28;19925;-64
2021/05/16 00:09:01;;;;;;;;;;;17.10;99.90;;;16.64;100.00;101001.66;5032352;28;19929;-63
2021/05/16 00:11:28;;;;;;;;;;;17.10;99.90;;;16.63;100.00;100999.25;5032369;28;19999;-63
2021/05/16 00:13:56;;;;;;;;;;;17.10;99.90;;;16.62;100.00;100998.47;5032238;28;19925;-63
2021/05/16 00:16:25;;;;;;;;;;;16.90;99.90;;;16.59;100.00;100996.41;5031390;28;19925;-63
2021/05/16 00:18:52;;;;;;;;;;;17.10;99.90;;;16.58;100.00;100985.78;5032276;28;19925;-63
2021/05/16 00:21:19;;;;;;;;;;;17.00;99.90;;;16.54;100.00;100984.78;5035568;28;19940;-63
2021/05/16 00:23:46;;;;;;;;;;;17.00;99.90;;;16.49;100.00;100987.72;5036112;28;20295;-63
2021/05/16 00:26:13;;;;;;;;;;;16.90;99.90;;;16.45;100.00;100986.75;5035628;28;19929;-64
2021/05/16 00:28:41;;;;;;;;;;;16.90;99.90;;;16.42;100.00;100983.53;5036286;28;19925;-63
2021/05/16 00:31:08;;;;;;;;;;;16.90;99.90;;;16.38;100.00;100984.53;5036149;28;19929;-64
2021/05/16 00:33:36;;;;;;;;;;;16.80;99.90;;;16.33;100.00;100988.22;5035974;28;19932;-63
2021/05/16 00:36:04;;;;;;;;;;;16.80;99.90;;;16.27;100.00;100984.06;5034784;28;19940;-63
2021/05/16 00:38:31;;;;;;;;;;;16.70;99.90;;;16.24;100.00;100990.16;5036097;28;19925;-64
2021/05/16 00:40:58;;;;;;;;;;;16.60;99.90;;;16.19;100.00;100987.63;5035970;28;19948;-64
2021/05/16 00:43:25;;;;;;;;;;;16.60;99.90;;;16.14;100.00;100982.31;5035849;28;19928;-63
2021/05/16 00:45:52;;;;;;;;;;;16.60;99.90;;;16.10;100.00;100986.00;5035018;28;20381;-63
2021/05/16 00:48:21;;;;;;;;;;;16.50;99.90;;;16.09;100.00;100985.22;5035613;28;19932;-63
2021/05/16 00:50:49;;;;;;;;;;;16.50;99.90;;;16.06;100.00;100983.13;5035741;28;19971;-64
2021/05/16 00:53:21;;;;;;;;;;;16.50;99.90;;;16.03;100.00;100975.59;5035622;28;19921;-63
2021/05/16 00:55:50;;;;;;;;;;;16.40;99.90;;;15.98;100.00;100974.94;5034935;28;19925;-64
2021/05/16 00:58:17;;;;;;;;;;;16.40;99.90;;;15.97;100.00;100971.41;5035266;28;20020;-63
2021/05/16 01:00:44;;;;;;;;;;;16.40;99.90;;;15.93;100.00;100964.22;5035772;28;20432;-63
2021/05/16 01:03:12;;;;;;;;;;;16.40;99.90;;;15.89;100.00;100961.31;5035282;28;20369;-63
2021/05/16 01:05:41;;;;;;;;;;;16.20;99.90;;;15.84;100.00;100965.00;5034950;28;20330;-63
2021/05/16 01:08:13;;;;;;;;;;;16.30;99.90;;;15.83;100.00;100962.59;5035043;28;19933;-63
2021/05/16 01:10:41;;;;;;;;;;;16.30;99.90;;;15.80;100.00;100974.16;5035556;28;19925;-63
2021/05/16 01:13:10;;;;;;;;;;;16.20;99.90;;;15.75;100.00;100971.56;5035291;28;19926;-64
2021/05/16 01:15:38;;;;;;;;;;;16.20;99.90;;;15.71;100.00;100962.44;5034897;28;20015;-63
2021/05/16 01:18:05;;;;;;;;;;;16.10;99.90;;;15.70;100.00;100950.75;5034895;28;20385;-62
2021/05/16 01:20:34;;;;;;;;;;;16.10;99.90;;;15.66;100.00;100952.50;5035193;28;19930;-63
2021/05/16 01:23:04;;;;;;;;;;;16.10;99.90;;;15.63;100.00;100941.41;5035130;28;19930;-62
2021/05/16 01:25:33;;;;;;;;;;;16.00;99.90;;;15.62;100.00;100942.56;5034727;28;19929;-63
2021/05/16 01:28:01;;;;;;;;;;;16.10;99.90;;;15.62;100.00;100948.00;5034624;28;19925;-62
2021/05/16 01:30:28;;;;;;;;;;;16.00;99.90;;;15.61;100.00;100944.47;5035019;28;19929;-62
2021/05/16 01:32:55;;;;;;;;;;;16.00;99.90;;;15.57;100.00;100940.78;5034345;28;19944;-63
2021/05/16 01:35:23;;;;;;;;;;;16.00;99.90;;;15.61;100.00;100938.22;5034367;28;19925;-62
2021/05/16 01:37:51;;;;;;;;;;;16.00;99.90;;;15.60;100.00;100937.41;5034434;28;19925;-63
2021/05/16 01:40:20;;;;;;;;;;;16.00;99.90;;;15.59;100.00;100938.56;5034902;28;19925;-63
2021/05/16 01:42:49;;;;;;;;;;;16.00;99.90;;;15.59;100.00;100944.00;5034762;28;19925;-62
2021/05/16 01:45:19;;;;;;;;;;;16.00;99.90;;;15.57;100.00;100937.25;5034082;28;20391;-62
2021/05/16 01:47:46;;;;;;;;;;;16.00;99.90;;;15.57;100.00;100937.25;5034364;28;19925;-63
2021/05/16 01:50:14;;;;;;;;;;;16.00;99.90;;;15.54;100.00;100935.16;5034657;28;20283;-63
2021/05/16 01:52:42;;;;;;;;;;;15.90;99.90;;;15.51;100.00;100930.34;5034675;28;19925;-63
2021/05/16 01:55:11;;;;;;;;;;;15.90;99.90;;;15.49;100.00;100933.41;5033870;28;19926;-62
2021/05/16 01:57:40;;;;;;;;;;;15.90;99.90;;;15.48;100.00;100929.06;5033871;28;19933;-63
2021/05/16 02:00:09;;;;;;;;;;;15.90;99.90;;;15.44;100.00;100925.34;5034556;28;19936;-63
2021/05/16 02:02:36;;;;;;;;;;;15.90;99.90;;;15.45;100.00;100924.22;5034547;28;19987;-63
2021/05/16 02:05:03;;;;;;;;;;;15.90;99.90;;;15.44;100.00;100908.22;5033989;28;19925;-63
2021/05/16 02:07:32;;;;;;;;;;;15.90;99.90;;;15.45;100.00;100915.25;5033531;28;19925;-63
2021/05/16 02:09:59;;;;;;;;;;;15.90;99.90;;;15.45;100.00;100905.16;5034245;28;19979;-62
2021/05/16 02:12:28;;;;;;;;;;;15.90;99.90;;;15.46;100.00;100904.03;5034336;28;19952;-63
2021/05/16 02:14:56;;;;;;;;;;;15.80;99.90;;;15.43;100.00;100906.59;5033900;28;19948;-62
2021/05/16 02:17:23;;;;;;;;;;;;;;;15.36;100.00;100907.06;5033512;28;19932;-63
2021/05/16 02:19:50;;;;;;;;;;;15.80;99.90;;;15.30;100.00;100900.97;5034112;28;20291;-62
2021/05/16 02:22:17;;;;;;;;;;;15.70;99.90;;;15.25;100.00;100900.34;5033825;28;19925;-64
2021/05/16 02:24:45;;;;;;;;;;;15.70;99.90;;;15.24;100.00;100902.25;5033842;28;20008;-63
2021/05/16 02:27:13;;;;;;;;;;;15.70;99.90;;;15.25;100.00;100894.88;5033321;28;19929;-63
2021/05/16 02:29:40;;;;;;;;;;;15.70;99.90;;;15.23;100.00;100892.47;5034189;28;19932;-63
2021/05/16 02:32:08;;;;;;;;;;;15.60;99.90;;;15.19;100.00;100898.88;5033963;28;19931;-63
2021/05/16 02:34:36;;;;;;;;;;;15.60;99.90;;;15.16;100.00;100896.81;5033433;28;20410;-62
2021/05/16 02:37:04;;;;;;;;;;;15.60;99.90;;;15.11;100.00;100905.91;5032909;28;19925;-62
2021/05/16 02:39:31;;;;;;;;;;;15.60;99.90;;;15.06;100.00;100902.53;5033840;28;19925;-62
2021/05/16 02:41:58;;;;;;;;;;;15.50;99.90;;;15.00;100.00;100907.34;5033655;28;19929;-64
2021/05/16 02:44:27;;;;;;;;;;;15.50;99.90;;;14.95;100.00;100899.31;5032605;28;19979;-63
2021/05/16 02:46:55;;;;;;;;;;;15.50;99.90;;;14.95;100.00;100901.25;5032397;28;19925;-62
2021/05/16 02:49:23;;;;;;;;;;;15.40;99.90;;;14.98;100.00;100901.41;5033659;28;19925;-64
2021/05/16 02:51:50;;;;;;;;;;;15.40;99.90;;;14.98;100.00;100903.34;5033475;28;19925;-65
2021/05/16 02:54:18;;;;;;;;;;;15.40;99.90;;;14.94;100.00;100908.59;5033552;28;19925;-64
2021/05/16 02:56:45;;;;;;;;;;;15.40;99.90;;;14.92;100.00;100910.84;5032294;28;19936;-63
2021/05/16 02:59:12;;;;;;;;;;;15.40;99.90;;;14.99;100.00;100908.44;5033462;28;19952;-63
2021/05/16 03:01:39;;;;;;;;;;;15.40;99.90;;;15.02;100.00;100896.13;5033369;28;20260;-63
2021/05/16 03:04:07;;;;;;;;;;;15.50;99.90;;;15.06;100.00;100897.91;5033258;28;19929;-63
2021/05/16 03:06:35;;;;;;;;;;;15.50;99.90;;;15.08;100.00;100903.00;5032224;28;20248;-63
2021/05/16 03:09:03;;;;;;;;;;;15.50;99.90;;;15.05;100.00;100896.28;5033096;28;19929;-63
2021/05/16 03:11:31;;;;;;;;;;;15.50;99.90;;;15.08;100.00;100897.56;5033034;28;19983;-63
2021/05/16 03:13:58;;;;;;;;;;;15.50;99.90;;;15.06;100.00;100897.91;5033307;28;19929;-62
2021/05/16 03:16:26;;;;;;;;;;;15.50;99.90;;;15.09;100.00;100901.91;5032035;28;20401;-63
2021/05/16 03:18:53;;;;;;;;;;;15.50;99.90;;;15.06;100.00;100900.63;5032841;28;19933;-63
2021/05/16 03:21:20;;;;;;;;;;;15.40;99.90;;;15.04;100.00;100886.53;5032912;28;19933;-63
2021/05/16 03:23:48;;;;;;;;;;;15.40;99.90;;;14.98;100.00;100889.72;5033079;28;19932;-63
2021/05/16 03:26:16;;;;;;;;;;;15.40;99.90;;;14.90;100.00;100896.72;5031928;28;20371;-62
2021/05/16 03:28:43;;;;;;;;;;;15.30;99.90;;;14.83;100.00;100896.41;5033242;28;19929;-63
2021/05/16 03:31:10;;;;;;;;;;;15.40;99.90;;;14.76;100.00;100901.50;5032522;28;19979;-63
2021/05/16 03:33:37;;;;;;;;;;;15.20;99.90;;;14.74;100.00;100903.75;5032691;28;20371;-63
2021/05/16 03:36:06;;;;;;;;;;;15.20;99.90;;;14.74;100.00;100903.75;5031774;28;19932;-62
2021/05/16 03:38:33;;;;;;;;;;;15.20;99.90;;;14.81;100.00;100901.34;5032655;28;20082;-63
2021/05/16 03:41:01;;;;;;;;;;;15.20;99.90;;;14.80;100.00;100902.50;5032589;28;19925;-63
2021/05/16 03:43:28;;;;;;;;;;;15.20;99.90;;;14.83;100.00;100890.97;5032425;28;20267;-63
2021/05/16 03:45:55;;;;;;;;;;;15.20;99.90;;;14.86;100.00;100893.06;5031699;28;19925;-63
2021/05/16 03:48:23;;;;;;;;;;;15.30;99.90;;;14.90;100.00;100890.47;5032393;28;19972;-63
2021/05/16 03:50:50;;;;;;;;;;;15.30;99.90;;;14.81;100.00;100901.34;5032582;28;19941;-63
2021/05/16 03:53:17;;;;;;;;;;;15.30;99.90;;;14.76;100.00;100896.88;5032452;28;19922;-63
2021/05/16 03:55:44;;;;;;;;;;;15.20;99.90;;;14.78;100.00;100899.25;5031514;28;20267;-63
2021/05/16 03:58:12;;;;;;;;;;;15.20;99.90;;;14.77;100.00;100900.41;5031916;28;20315;-63
2021/05/16 04:00:40;;;;;;;;;;;15.20;99.90;;;14.87;100.00;100891.91;5032280;28;19932;-63
2021/05/16 04:03:07;;;;;;;;;;;15.30;99.90;;;14.87;100.00;100886.47;5032373;28;19995;-63
2021/05/16 04:05:34;;;;;;;;;;;15.30;99.90;;;14.94;100.00;100884.09;5031945;28;19929;-62
2021/05/16 04:08:02;;;;;;;;;;;15.40;99.90;;;14.98;100.00;100895.97;5031692;28;19929;-63
2021/05/16 04:10:29;;;;;;;;;;;15.40;99.90;;;15.03;100.00;100890.38;5032157;28;19940;-63
2021/05/16 04:12:56;;;;;;;;;;;15.40;99.90;;;15.08;100.00;100882.03;5032294;28;19929;-62
2021/05/16 04:15:24;;;;;;;;;;;15.50;99.90;;;15.12;100.00;100883.00;5031870;28;19929;-64
2021/05/16 04:17:51;;;;;;;;;;;15.60;99.90;;;15.16;100.00;100888.63;5031378;28;20276;-63
2021/05/16 04:20:19;;;;;;;;;;;15.60;99.90;;;15.23;100.00;100878.84;5032179;28;19929;-62
2021/05/16 04:22:46;;;;;;;;;;;15.70;99.90;;;15.28;100.00;100877.91;5032122;28;19925;-64
2021/05/16 04:25:14;;;;;;;;;;;15.70;99.90;;;15.35;100.00;100880.16;5031718;28;19925;-64
2021/05/16 04:27:41;;;;;;;;;;;15.80;99.90;;;15.39;100.00;100872.94;5031236;28;19925;-64
2021/05/16 04:30:09;;;;;;;;;;;15.80;99.90;;;15.40;100.00;100871.81;5032229;28;19953;-64
2021/05/16 04:32:38;;;;;;;;;;;15.80;99.90;;;15.43;100.00;100871.97;5031955;28;20402;-64
2021/05/16 04:35:06;;;;;;;;;;;15.90;99.90;;;15.47;100.00;100867.50;5031883;28;19979;-64
2021/05/16 04:37:33;;;;;;;;;;;15.90;99.90;;;15.47;100.00;100867.50;5031037;28;19929;-64
2021/05/16 04:40:00;;;;;;;;;;;15.90;99.90;;;15.52;100.00;100870.09;5031849;28;19925;-64
2021/05/16 04:42:27;;;;;;;;;;;15.90;99.90;;;15.51;100.00;100865.75;5031944;28;19955;-64
2021/05/16 04:44:54;;;;;;;;;;;15.90;99.90;;;15.54;100.00;100869.75;5031764;28;20038;-64
2021/05/16 04:47:22;;;;;;;;;;;16.00;99.90;;;15.53;100.00;100868.97;5030946;28;19929;-64
2021/05/16 04:49:50;;;;;;;;;;;16.00;99.90;;;15.55;100.00;100869.44;5032015;28;19929;-64
2021/05/16 04:52:17;;;;;;;;;;;16.00;99.90;;;15.56;100.00;100862.88;5031889;28;20366;-64
2021/05/16 04:54:44;;;;;;;;;;;16.00;99.90;;;15.56;100.00;100871.06;5031643;28;19929;-64
2021/05/16 04:57:11;;;;;;;;;;;16.00;99.90;;;15.60;100.00;100872.00;5030841;28;19925;-64
2021/05/16 04:59:39;;;;;;;;;;;16.00;99.90;;;15.60;100.00;100876.63;5031975;28;19936;-64
2021/05/16 05:02:07;;;;;;;;;;;16.00;99.90;;;15.61;100.00;100879.06;5031807;28;19925;-64
2021/05/16 05:04:35;;;;;;;;;;;16.10;99.90;;;15.62;100.00;100879.88;5032011;28;19947;-64
2021/05/16 05:07:04;;;;;;;;;;;16.10;99.90;;;15.61;100.00;100875.53;5031860;28;19925;-64
2021/05/16 05:09:32;;;;;;;;;;;16.10;99.90;;;15.65;100.00;100881.94;5035462;28;19925;-64
2021/05/16 05:11:59;;;;;;;;;;;16.10;99.90;;;15.62;100.00;100883.41;5035608;28;19929;-65
2021/05/16 05:14:28;;;;;;;;;;;16.10;99.90;;;15.65;100.00;100881.94;5035382;28;19936;-64
2021/05/16 05:16:56;;;;;;;;;;;16.10;99.90;;;15.67;100.00;100871.50;5034351;28;19925;-64
2021/05/16 05:19:23;;;;;;;;;;;16.10;99.90;;;15.68;100.00;100875.84;5035067;28;20086;-64
2021/05/16 05:21:50;;;;;;;;;;;16.10;99.90;;;15.69;100.00;100869.25;5035168;28;19925;-64
2021/05/16 05:24:19;;;;;;;;;;;16.10;99.90;;;15.69;100.00;100866.53;5035421;28;19933;-65
2021/05/16 05:26:46;;;;;;;;;;;16.10;99.90;;;15.69;100.00;100864.63;5034137;28;19925;-64
2021/05/16 05:29:13;;;;;;;;;;;16.10;99.90;;;15.72;100.00;100863.97;5035120;28;19929;-64
2021/05/16 05:31:40;;;;;;;;;;;16.20;99.90;;;15.72;100.00;100872.16;5034956;28;20326;-64
2021/05/16 05:34:07;;;;;;;;;;;16.20;99.90;;;15.72;100.00;100874.06;5034919;28;19964;-64
2021/05/16 05:36:34;;;;;;;;;;;16.10;99.90;;;15.75;100.00;100874.22;5034175;28;19944;-64
2021/05/16 05:39:02;;;;;;;;;;;16.20;99.90;;;15.75;100.00;100879.69;5034737;28;19925;-64
2021/05/16 05:41:30;;;;;;;;;;;16.20;99.90;;;15.76;100.00;100875.84;5034818;28;19951;-64
2021/05/16 05:43:57;;;;;;;;;;;16.20;99.90;;;15.83;100.00;100878.88;5034637;28;19936;-64
2021/05/16 05:46:25;;;;;;;;;;;16.30;99.90;;;15.84;100.00;100885.13;5033888;28;19933;-63
2021/05/16 05:48:52;;;;;;;;;;;16.30;99.90;;;15.87;100.00;100884.47;5034472;28;19979;-64
2021/05/16 05:51:19;;;;;;;;;;;16.30;99.90;;;15.89;100.00;100884.16;5034815;28;19948;-65
2021/05/16 05:53:46;;;;;;;;;;;16.40;99.90;;;15.91;100.00;100892.81;5034643;28;19925;-65
2021/05/16 05:56:13;;;;;;;;;;;16.40;99.90;;;15.94;100.00;100890.25;5033649;28;19936;-65
2021/05/16 05:58:42;;;;;;;;;;;16.40;99.90;;;15.97;100.00;100899.69;5034278;28;19925;-64
2021/05/16 06:01:09;;;;;;;;;;;16.40;99.90;;;16.01;100.00;100901.47;5034440;28;19936;-64
2021/05/16 06:03:36;;;;;;;;;;;16.40;99.90;;;16.04;100.00;100903.56;5034353;28;19925;-64
2021/05/16 06:06:03;;;;;;;;;;;16.50;99.90;;;16.05;100.00;100905.13;5033425;28;19925;-62
2021/05/16 06:08:30;;;;;;;;;;;16.50;99.90;;;16.10;100.00;100907.72;5034116;28;19971;-62
2021/05/16 06:10:57;;;;;;;;;;;16.50;99.90;;;16.10;100.00;100902.25;5034099;28;19925;-63
2021/05/16 06:13:25;;;;;;;;;;;16.50;99.90;;;16.12;100.00;100901.91;5034388;28;19979;-62
2021/05/16 06:15:53;;;;;;;;;;;16.50;99.90;;;16.16;100.00;100895.50;5033695;28;20067;-64
2021/05/16 06:18:22;;;;;;;;;;;16.60;99.90;;;16.17;100.00;100908.00;5033500;28;19948;-63
2021/05/16 06:20:49;;;;;;;;;;;16.60;99.90;;;16.21;100.00;100906.22;5034072;28;20016;-62
2021/05/16 06:23:17;;;;;;;;;;;16.60;99.90;;;16.22;100.00;100904.31;5034195;28;19928;-63
2021/05/16 06:25:45;;;;;;;;;;;16.60;99.90;;;16.24;100.00;100912.97;5033688;28;20286;-63
2021/05/16 06:28:12;;;;;;;;;;;16.70;99.90;;;16.27;100.00;100912.31;5033406;28;19936;-63
2021/05/16 06:30:40;;;;;;;;;;;16.70;99.90;;;16.30;100.00;100912.47;5033869;28;19925;-63
2021/05/16 06:33:08;;;;;;;;;;;16.70;99.90;;;16.36;100.00;100919.34;5034013;28;19971;-63
2021/05/16 06:35:35;;;;;;;;;;;16.80;99.90;;;16.39;100.00;100921.41;5033511;28;19925;-63
2021/05/16 06:38:02;;;;;;;;;;;16.80;99.90;;;16.42;100.00;100918.03;5033375;28;19971;-62
2021/05/16 06:40:32;;;;;;;;;;;16.80;99.90;;;16.46;100.00;100920.13;5033603;28;19929;-63
2021/05/16 06:43:01;;;;;;;;;;;16.90;99.90;;;16.49;100.00;100927.66;5033492;28;20432;-63
2021/05/16 06:45:28;;;;;;;;;;;16.90;99.90;;;16.53;100.00;100929.41;5033439;28;19931;-65
2021/05/16 06:47:55;;;;;;;;;;;16.90;99.90;;;16.56;100.00;100937.00;5033111;28;20286;-64
2021/05/16 06:50:23;;;;;;;;;;;17.00;99.90;;;16.60;100.00;100948.03;5033510;28;19929;-63
2021/05/16 06:52:50;;;;;;;;;;;17.00;99.90;;;16.69;100.00;100951.53;5033686;28;19979;-63
2021/05/16 06:55:18;;;;;;;;;;;17.10;99.90;;;16.75;100.00;100955.69;5033231;28;19929;-64
2021/05/16 06:57:45;;;;;;;;;;;17.10;99.90;;;16.76;100.00;100958.09;5032817;28;19925;-63
2021/05/16 07:00:13;;;;;;;;;;;17.20;99.90;;;16.80;100.00;100964.53;5033279;28;20394;-63
2021/05/16 07:02:41;;;;;;;;;;;17.20;99.90;;;16.85;100.00;100963.53;5032773;28;19925;-63
2021/05/16 07:05:10;;;;;;;;;;;17.30;99.90;;;16.91;100.00;100962.22;5033037;28;19925;-63
2021/05/16 07:07:39;;;;;;;;;;;17.30;99.90;;;16.93;100.00;100962.69;5032349;28;19925;-62
2021/05/16 07:10:08;;;;;;;;;;;17.30;99.90;;;16.99;100.00;100964.13;5033005;28;19925;-64
2021/05/16 07:12:35;;;;;;;;;;;17.40;99.90;;;17.05;100.00;100970.19;5033015;28;19926;-64
2021/05/16 07:15:02;;;;;;;;;;;17.50;99.90;;;17.15;100.00;100954.22;5032889;28;20401;-65
2021/05/16 07:17:30;;;;;;;;;;;17.60;99.90;;;17.28;100.00;100958.66;5032254;28;19929;-64
2021/05/16 07:19:57;;;;;;;;;;;17.70;99.90;;;17.34;100.00;100964.72;5032855;28;19929;-64
2021/05/16 07:22:24;;;;;;;;;;;17.70;99.90;;;17.46;100.00;100964.78;5032903;28;19933;-64
2021/05/16 07:24:52;;;;;;;;;;;17.80;99.90;;;17.57;99.08;100965.25;5032908;28;20272;-65
2021/05/16 07:27:19;;;;;;;;;;;17.90;99.90;;;17.61;98.62;100961.50;5032002;28;20024;-65
2021/05/16 07:29:47;;;;;;;;;;;18.00;99.90;;;17.66;97.60;100964.03;5032350;28;19926;-64
2021/05/16 07:32:14;;;;;;;;;;;18.00;99.90;;;17.73;97.40;100968.97;5032872;28;19928;-64
2021/05/16 07:34:41;;;;;;;;;;;18.10;99.90;;;17.71;96.43;100973.97;5032635;28;20295;-64
2021/05/16 07:37:08;;;;;;;;;;;18.10;99.90;;;17.67;96.47;100986.72;5031873;28;19979;-64
2021/05/16 07:39:36;;;;;;;;;;;18.10;99.90;;;17.68;96.33;100983.66;5032742;28;19928;-64
2021/05/16 07:42:04;;;;;;;;;;;18.10;99.90;;;17.64;96.13;100979.16;5032611;28;19925;-64
2021/05/16 07:44:32;;;;;;;;;;;18.10;99.90;;;17.65;96.47;100988.97;5032601;28;19926;-64
2021/05/16 07:46:59;;;;;;;;;;;18.10;99.90;;;17.71;96.41;100991.19;5031857;28;19925;-64
2021/05/16 07:49:26;;;;;;;;;;;18.20;99.90;;;17.77;96.50;100989.06;5032642;28;19932;-64
2021/05/16 07:51:54;;;;;;;;;;;18.20;99.90;;;17.76;94.59;100993.72;5032435;28;20383;-64
2021/05/16 07:54:21;;;;;;;;;;;18.20;99.90;;;17.82;95.04;100989.66;5032628;28;19956;-64
2021/05/16 07:56:48;;;;;;;;;;;18.20;99.90;;;17.84;93.43;100992.84;5031497;28;19925;-64
2021/05/16 07:59:16;;;;;;;;;;;18.20;99.90;;;17.83;93.39;100991.25;5032402;28;19925;-64
2021/05/16 08:01:43;;;;;;;;;;;18.30;99.90;;;17.90;93.62;101001.66;5032418;28;19925;-64
2021/05/16 08:04:10;;;;;;;;;;;18.30;99.90;;;18.02;94.19;100999.78;5032262;28;19925;-64
2021/05/16 08:06:38;;;;;;;;;;;18.30;99.90;;;18.12;93.67;100995.06;5031140;28;20494;-65
2021/05/16 08:09:05;;;;;;;;;;;18.50;99.90;;;18.18;92.80;100988.22;5032209;28;19925;-65
2021/05/16 08:11:32;;;;;;;;;;;18.60;99.90;;;18.21;92.32;100988.34;5032206;28;19932;-64
2021/05/16 08:13:59;;;;;;;;;;;18.60;99.90;;;18.32;92.08;100989.53;5032292;28;20348;-64
2021/05/16 08:16:29;;;;;;;;;;;18.70;99.90;;;18.39;92.05;100980.78;5031118;28;19932;-64
2021/05/16 08:18:56;;;;;;;;;;;18.80;99.90;;;18.54;91.44;100989.16;5031954;28;19929;-64
2021/05/16 08:21:24;;;;;;;;;;;19.00;99.90;;;18.66;89.64;100991.13;5032036;28;20291;-64
2021/05/16 08:23:52;;;;;;;;;;;19.20;99.90;;;19.08;88.77;100984.31;5032265;28;19929;-64
2021/05/16 08:26:19;;;;;;;;;;;19.60;99.90;;;19.44;87.31;100975.31;5031325;28;20426;-64
2021/05/16 08:28:47;;;;;;;;;;;20.00;99.90;;;19.77;83.00;100977.03;5032109;28;19932;-64
2021/05/16 08:31:14;;;;;;;;;;;20.10;99.90;;;20.30;80.75;100973.09;5031761;28;19933;-64
2021/05/16 08:33:42;;;;;;;;;;;20.50;99.90;;;20.37;77.54;100981.50;5032113;28;19926;-64
2021/05/16 08:36:09;;;;;;;;;;;20.70;99.90;;;20.34;77.04;100972.03;5031353;28;19971;-65
2021/05/16 08:38:37;;;;;;;;;;;20.80;99.90;;;20.46;78.60;100965.66;5031924;28;19925;-64
2021/05/16 08:41:04;;;;;;;;;;;20.90;99.90;;;20.57;76.27;100961.28;5031874;28;19925;-64
2021/05/16 08:43:31;;;;;;;;;;;21.00;99.90;;;20.77;75.47;100954.72;5035559;28;19929;-64
2021/05/16 08:45:58;;;;;;;;;;;21.10;99.90;;;21.54;73.08;100952.22;5035250;28;19971;-64
2021/05/16 08:48:29;;;;;;;;;;;21.70;99.90;;;22.34;70.97;100946.78;5035742;28;20349;-65
2021/05/16 08:50:58;;;;;;;;;;;22.40;99.90;;;22.53;67.60;100952.25;5035845;28;19933;-64
2021/05/16 08:53:25;;;;;;;;;;;22.70;99.90;;;22.02;68.27;100950.88;5035854;28;19925;-65
2021/05/16 08:55:52;;;;;;;;;;;22.20;99.90;;;21.56;68.75;100947.94;5035413;28;19932;-64
2021/05/16 08:58:19;;;;;;;;;;;22.00;99.90;;;;;;5035028;28;19925;-65
2021/05/16 09:00:48;;;;;;;;;;;22.20;99.90;;;21.52;69.60;100935.28;5035552;28;19929;-64
2021/05/16 09:03:16;;;;;;;;;;;22.00;99.90;;;21.77;71.10;100936.59;5035604;28;19921;-64
2021/05/16 09:05:44;;;;;;;;;;;22.00;99.90;;;22.07;69.17;100931.34;5035425;28;19925;-64
2021/05/16 09:08:13;;;;;;;;;;;22.50;99.90;;;22.42;68.33;100915.44;5034933;28;19925;-65
2021/05/16 09:10:42;;;;;;;;;;;22.60;99.90;;;22.83;67.44;100922.06;5035637;28;19932;-65
2021/05/16 09:13:10;;;;;;;;;;;23.00;99.90;;;23.09;65.15;100924.03;5035389;28;19956;-64
2021/05/16 09:15:38;;;;;;;;;;;23.40;99.90;;;23.15;65.31;100917.84;5034956;28;19925;-65
2021/05/16 09:18:05;;;;;;;;;;;23.50;99.90;;;23.53;64.96;100924.31;5034683;28;19932;-65
2021/05/16 09:20:33;;;;;;;;;;;23.80;99.90;;;23.64;63.46;100930.75;5035276;28;20019;-64
2021/05/16 09:23:00;;;;;;;;;;;24.00;99.90;;;23.38;64.58;100937.06;5035161;28;20378;-65
2021/05/16 09:25:31;;;;;;;;;;;23.80;99.90;;;23.43;64.45;100942.31;5034955;28;19925;-64
2021/05/16 09:28:11;;;;;;;;;;;23.90;99.90;;;23.62;63.50;100947.66;5034628;28;19925;-65
2021/05/16 09:30:40;;;;;;;;;;;24.00;99.90;;;23.62;62.78;100950.44;5035123;28;20360;-65
2021/05/16 09:33:09;;;;;;;;;;;24.00;99.90;;;23.48;61.56;100944.72;5035099;28;19932;-65
2021/05/16 09:35:39;;;;;;;;;;;24.00;99.90;;;23.25;61.61;100944.78;5034549;28;19929;-65
2021/05/16 09:38:12;;;;;;;;;;;23.70;99.90;;;23.46;63.22;100947.09;5034424;28;19925;-64
2021/05/16 09:40:42;;;;;;;;;;;23.80;99.90;;;23.73;64.47;100942.31;5035058;28;20021;-64
2021/05/16 09:43:15;;;;;;;;;;;24.00;99.90;;;23.98;62.66;100940.66;5034736;28;19952;-65
2021/05/16 09:45:48;;;;;;;;;;;24.20;99.90;;;23.89;60.13;100943.66;5034429;28;19979;-64
2021/05/16 09:48:42;;;;;;;;;;;24.30;99.90;;;23.92;60.86;100948.44;5034335;28;20389;-65
2021/05/16 09:51:14;;;;;;;;;;;24.20;99.90;;;24.12;61.23;100951.06;5034872;28;19925;-64
2021/05/16 09:54:05;;;;;;;;;;;24.40;99.90;;;24.06;59.39;100958.88;5033998;28;20375;-65
2021/05/16 09:56:35;;;;;;;;;;;24.50;99.90;;;23.67;61.19;100946.56;5017244;28;19929;-65
2021/05/16 09:59:04;;;;;;;;;;;24.30;99.90;;;23.41;60.19;100961.19;5034568;28;19932;-65
2021/05/16 10:01:32;;;;;;;;;;;24.00;99.90;;;23.26;61.18;100959.34;5034549;28;19948;-64
2021/05/16 10:04:00;;;;;;;;;;;23.80;99.90;;;23.05;61.25;100961.78;5034275;28;20274;-64
2021/05/16 10:06:28;;;;;;;;;;;23.70;99.90;;;22.94;62.46;100977.38;5033721;28;19925;-65
2021/05/16 10:08:56;;;;;;;;;;;23.60;99.90;;;22.91;62.79;100976.16;5034318;28;19929;-65
2021/05/16 10:11:25;;;;;;;;;;;23.50;99.90;;;22.81;62.75;100985.84;5034566;28;19925;-65
2021/05/16 10:14:04;;;;;;;;;;;23.50;99.90;;;22.65;63.53;100987.91;5034252;28;19925;-63
2021/05/16 10:16:34;;;;;;;;;;;23.30;99.90;;;22.43;64.67;100982.38;5033357;28;20387;-63
2021/05/16 10:19:01;;;;;;;;;;;23.10;99.90;;;22.29;65.55;100988.41;5034180;28;20271;-63
2021/05/16 10:21:29;;;;;;;;;;;22.90;99.90;;;22.20;65.83;100990.59;5034231;28;19925;-64
2021/05/16 10:24:10;;;;;;;;;;;22.80;99.90;;;22.05;66.60;101000.53;5033840;28;19932;-65
2021/05/16 10:26:38;;;;;;;;;;;22.60;99.90;;;22.05;68.15;100994.22;5033055;28;19936;-65
2021/05/16 10:29:07;;;;;;;;;;;22.60;99.90;;;22.12;68.60;101008.94;5034053;28;19929;-64
2021/05/16 10:31:43;;;;;;;;;;;22.60;99.90;;;22.13;68.79;101002.25;5033935;28;19933;-64
2021/05/16 10:34:43;;;;;;;;;;;22.70;99.90;;;22.16;67.77;101017.28;5033692;28;19999;-65
2021/05/16 10:37:26;;;;;;;;;;;22.70;99.90;;;22.03;68.96;101015.81;4991395;28;19926;-63
2021/05/16 10:39:55;;;;;;;;;;;22.60;99.90;;;22.23;68.59;101011.91;4980297;28;19926;-63
2021/05/16 10:42:24;;;;;;;;;;;22.80;99.90;;;22.03;69.15;101015.81;5015776;28;19932;-65
2021/05/16 10:45:07;;;;;;;;;;;22.60;99.90;;;22.01;68.82;101010.66;5033786;28;19932;-65
2021/05/16 10:47:54;;;;;;;;;;;22.60;99.90;;;22.12;69.64;101010.91;5032737;28;20412;-63
2021/05/16 10:50:50;;;;;;;;;;;22.60;99.90;;;22.15;68.94;101021.19;5033709;28;19979;-63
2021/05/16 10:53:28;;;;;;;;;;;22.70;99.90;;;22.23;69.89;101020.97;5033674;28;20274;-65
2021/05/16 10:56:07;;;;;;;;;;;22.70;99.90;;;22.06;69.08;101015.91;5033127;28;19968;-63
2021/05/16 10:58:42;;;;;;;;;;;22.60;99.90;;;22.15;70.68;101012.91;5033519;28;19929;-65
2021/05/16 11:01:11;;;;;;;;;;;22.60;99.90;;;22.24;69.65;101008.78;5033229;28;19940;-65
2021/05/16 11:03:50;;;;;;;;;;;22.70;99.90;;;22.41;70.10;101007.53;5032888;28;19929;-65
2021/05/16 11:06:18;;;;;;;;;;;22.90;99.90;;;22.46;67.75;100996.22;5032107;28;19979;-64
2021/05/16 11:09:13;;;;;;;;;;;23.00;99.90;;;22.41;68.02;100996.50;5033314;28;19925;-65
2021/05/16 11:12:02;;;;;;;;;;;22.90;99.90;;;22.44;69.05;100994.97;5033217;28;19926;-65